sensor_id;sensor_type;location;lat;lon;timestamp;temperature;humidity
38090;DHT22;23904;52.322;10.232;2023-01-29T00:02:12;0.40;99.90
38090;DHT22;23904;52.322;10.232;2023-01-29T00:04:38;0.40;99.90
38090;DHT22;23904;52.322;10.232;2023-01-29T00:07:04;0.40;99.90
38090;DHT22;23904;52.322;10.232;2023-01-29T00:09:29;0.40;99.90
38090;DHT22;23904;52.322;10.232;2023-01-29T00:11:56;0.50;99.90
38090;DHT22;23904;52.322;10.232;2023-01-29T00:14:21;0.50;99.90
38090;DHT22;23904;52.322;10.232;2023-01-29T00:16:47;0.50;99.90
38090;DHT22;23904;52.322;10.232;2023-01-29T00:19:12;0.60;99.90
38090;DHT22;23904;52.322;10.232;2023-01-29T00:21:38;0.60;99.90
38090;DHT22;23904;52.322;10.232;2023-01-29T00:24:03;0.60;99.90
38090;DHT22;23904;52.322;10.232;2023-01-29T00:26:30;0.60;99.90
38090;DHT22;23904;52.322;10.232;2023-01-29T00:28:55;0.60;99.90
38090;DHT22;23904;52.322;10.232;2023-01-29T00:31:23;0.60;99.90
38090;DHT22;23904;52.322;10.232;2023-01-29T00:33:49;0.60;99.90
38090;DHT22;23904;52.322;10.232;2023-01-29T00:36:17;0.60;99.90
38090;DHT22;23904;52.322;10.232;2023-01-29T00:38:43;0.50;99.90
38090;DHT22;23904;52.322;10.232;2023-01-29T00:41:13;0.50;99.90
38090;DHT22;23904;52.322;10.232;2023-01-29T00:43:59;0.60;99.90
38090;DHT22;23904;52.322;10.232;2023-01-29T00:46:44;0.60;99.90
38090;DHT22;23904;52.322;10.232;2023-01-29T00:49:10;0.60;99.90
38090;DHT22;23904;52.322;10.232;2023-01-29T00:51:36;0.50;99.90
38090;DHT22;23904;52.322;10.232;2023-01-29T00:54:03;0.50;99.90
38090;DHT22;23904;52.322;10.232;2023-01-29T00:56:32;0.50;99.90
38090;DHT22;23904;52.322;10.232;2023-01-29T00:58:59;0.50;99.90
38090;DHT22;23904;52.322;10.232;2023-01-29T01:01:25;0.50;99.90
38090;DHT22;23904;52.322;10.232;2023-01-29T01:04:10;0.40;99.90
38090;DHT22;23904;52.322;10.232;2023-01-29T01:06:40;0.40;99.90
38090;DHT22;23904;52.322;10.232;2023-01-29T01:09:07;0.40;99.90
38090;DHT22;23904;52.322;10.232;2023-01-29T01:11:52;0.50;99.90
38090;DHT22;23904;52.322;10.232;2023-01-29T01:14:19;0.50;99.90
38090;DHT22;23904;52.322;10.232;2023-01-29T01:16:46;0.50;99.90
38090;DHT22;23904;52.322;10.232;2023-01-29T01:19:15;0.50;99.90
38090;DHT22;23904;52.322;10.232;2023-01-29T01:21:41;0.50;99.90
38090;DHT22;23904;52.322;10.232;2023-01-29T01:24:12;0.50;99.90
38090;DHT22;23904;52.322;10.232;2023-01-29T01:26:38;0.50;99.90
38090;DHT22;23904;52.322;10.232;2023-01-29T01:29:03;0.60;99.90
38090;DHT22;23904;52.322;10.232;2023-01-29T01:31:29;0.60;99.90
38090;DHT22;23904;52.322;10.232;2023-01-29T01:33:54;0.60;99.90
38090;DHT22;23904;52.322;10.232;2023-01-29T01:36:20;0.50;99.90
38090;DHT22;23904;52.322;10.232;2023-01-29T01:38:46;0.50;99.90
38090;DHT22;23904;52.322;10.232;2023-01-29T01:41:16;0.40;99.90
38090;DHT22;23904;52.322;10.232;2023-01-29T01:43:58;0.40;99.90
38090;DHT22;23904;52.322;10.232;2023-01-29T01:46:30;0.50;99.90
38090;DHT22;23904;52.322;10.232;2023-01-29T01:49:10;0.50;99.90
38090;DHT22;23904;52.322;10.232;2023-01-29T01:51:47;0.50;99.90
38090;DHT22;23904;52.322;10.232;2023-01-29T01:54:19;0.50;99.90
38090;DHT22;23904;52.322;10.232;2023-01-29T01:56:53;0.50;99.90
38090;DHT22;23904;52.322;10.232;2023-01-29T01:59:34;0.50;99.90
38090;DHT22;23904;52.322;10.232;2023-01-29T02:02:02;0.50;99.90
38090;DHT22;23904;52.322;10.232;2023-01-29T02:04:47;0.40;99.90
38090;DHT22;23904;52.322;10.232;2023-01-29T02:07:32;0.40;99.90
38090;DHT22;23904;52.322;10.232;2023-01-29T02:10:17;0.30;99.90
38090;DHT22;23904;52.322;10.232;2023-01-29T02:12:44;0.20;99.90
38090;DHT22;23904;52.322;10.232;2023-01-29T02:15:11;0.20;99.90
38090;DHT22;23904;52.322;10.232;2023-01-29T02:17:38;0.20;99.90
38090;DHT22;23904;52.322;10.232;2023-01-29T02:20:17;0.30;99.90
38090;DHT22;23904;52.322;10.232;2023-01-29T02:31:00;0.20;99.90
38090;DHT22;23904;52.322;10.232;2023-01-29T02:34:00;0.30;99.90
38090;DHT22;23904;52.322;10.232;2023-01-29T02:37:02;0.30;99.90
38090;DHT22;23904;52.322;10.232;2023-01-29T02:39:49;0.30;99.90
38090;DHT22;23904;52.322;10.232;2023-01-29T02:45:14;0.40;99.90
38090;DHT22;23904;52.322;10.232;2023-01-29T02:47:56;0.40;99.90
38090;DHT22;23904;52.322;10.232;2023-01-29T02:50:37;0.50;99.90
38090;DHT22;23904;52.322;10.232;2023-01-29T02:56:12;0.60;99.90
38090;DHT22;23904;52.322;10.232;2023-01-29T02:58:46;0.60;99.90
38090;DHT22;23904;52.322;10.232;2023-01-29T03:01:21;0.60;99.90
38090;DHT22;23904;52.322;10.232;2023-01-29T03:03:57;0.60;99.90
38090;DHT22;23904;52.322;10.232;2023-01-29T03:06:40;0.60;99.90
38090;DHT22;23904;52.322;10.232;2023-01-29T03:09:15;0.60;99.90
38090;DHT22;23904;52.322;10.232;2023-01-29T03:11:50;0.60;99.90
38090;DHT22;23904;52.322;10.232;2023-01-29T03:14:23;0.60;99.90
38090;DHT22;23904;52.322;10.232;2023-01-29T03:17:13;0.70;99.90
38090;DHT22;23904;52.322;10.232;2023-01-29T03:19:43;0.80;99.90
38090;DHT22;23904;52.322;10.232;2023-01-29T03:22:12;0.80;99.90
38090;DHT22;23904;52.322;10.232;2023-01-29T03:24:46;0.70;99.90
38090;DHT22;23904;52.322;10.232;2023-01-29T03:27:47;0.70;99.90
38090;DHT22;23904;52.322;10.232;2023-01-29T03:30:37;0.80;99.90
38090;DHT22;23904;52.322;10.232;2023-01-29T03:33:25;0.80;99.90
38090;DHT22;23904;52.322;10.232;2023-01-29T03:35:59;0.70;99.90
38090;DHT22;23904;52.322;10.232;2023-01-29T03:38:29;0.70;99.90
38090;DHT22;23904;52.322;10.232;2023-01-29T03:41:09;0.70;99.90
38090;DHT22;23904;52.322;10.232;2023-01-29T03:46:30;0.60;99.90
38090;DHT22;23904;52.322;10.232;2023-01-29T03:49:06;0.60;99.90
38090;DHT22;23904;52.322;10.232;2023-01-29T03:51:55;0.60;99.90
38090;DHT22;23904;52.322;10.232;2023-01-29T03:54:29;0.70;99.90
38090;DHT22;23904;52.322;10.232;2023-01-29T03:57:20;0.80;99.90
38090;DHT22;23904;52.322;10.232;2023-01-29T04:00:13;0.70;99.90
38090;DHT22;23904;52.322;10.232;2023-01-29T04:02:46;0.70;99.90
38090;DHT22;23904;52.322;10.232;2023-01-29T04:05:35;0.70;99.90
38090;DHT22;23904;52.322;10.232;2023-01-29T04:08:09;0.70;99.90
38090;DHT22;23904;52.322;10.232;2023-01-29T04:10:40;0.70;99.90
38090;DHT22;23904;52.322;10.232;2023-01-29T04:13:10;0.70;99.90
38090;DHT22;23904;52.322;10.232;2023-01-29T04:15:44;0.70;99.90
38090;DHT22;23904;52.322;10.232;2023-01-29T04:18:12;0.60;99.90
38090;DHT22;23904;52.322;10.232;2023-01-29T04:20:39;0.60;99.90
38090;DHT22;23904;52.322;10.232;2023-01-29T04:23:06;0.60;99.90
38090;DHT22;23904;52.322;10.232;2023-01-29T04:25:41;0.60;99.90
38090;DHT22;23904;52.322;10.232;2023-01-29T04:28:58;0.60;99.90
38090;DHT22;23904;52.322;10.232;2023-01-29T04:31:46;0.60;99.90
38090;DHT22;23904;52.322;10.232;2023-01-29T04:34:22;0.50;99.90
38090;DHT22;23904;52.322;10.232;2023-01-29T04:51:09;0.50;99.90
38090;DHT22;23904;52.322;10.232;2023-01-29T04:54:01;0.50;99.90
38090;DHT22;23904;52.322;10.232;2023-01-29T04:56:51;0.50;99.90
38090;DHT22;23904;52.322;10.232;2023-01-29T04:59:34;0.50;99.90
38090;DHT22;23904;52.322;10.232;2023-01-29T05:02:01;0.50;99.90
38090;DHT22;23904;52.322;10.232;2023-01-29T05:04:30;0.50;99.90
38090;DHT22;23904;52.322;10.232;2023-01-29T05:07:00;0.50;99.90
38090;DHT22;23904;52.322;10.232;2023-01-29T05:09:28;0.60;99.90
38090;DHT22;23904;52.322;10.232;2023-01-29T05:11:54;0.60;99.90
38090;DHT22;23904;52.322;10.232;2023-01-29T05:14:21;0.60;99.90
38090;DHT22;23904;52.322;10.232;2023-01-29T05:16:51;0.70;99.90
38090;DHT22;23904;52.322;10.232;2023-01-29T05:19:17;0.70;99.90
38090;DHT22;23904;52.322;10.232;2023-01-29T05:21:45;0.70;99.90
38090;DHT22;23904;52.322;10.232;2023-01-29T05:24:21;0.70;99.90
38090;DHT22;23904;52.322;10.232;2023-01-29T05:26:49;0.70;99.90
38090;DHT22;23904;52.322;10.232;2023-01-29T05:29:34;0.80;99.90
38090;DHT22;23904;52.322;10.232;2023-01-29T05:32:00;0.80;99.90
38090;DHT22;23904;52.322;10.232;2023-01-29T05:34:26;0.70;99.90
38090;DHT22;23904;52.322;10.232;2023-01-29T05:36:51;0.80;99.90
38090;DHT22;23904;52.322;10.232;2023-01-29T05:39:18;0.80;99.90
38090;DHT22;23904;52.322;10.232;2023-01-29T05:41:43;0.90;99.90
38090;DHT22;23904;52.322;10.232;2023-01-29T05:44:09;0.90;99.90
38090;DHT22;23904;52.322;10.232;2023-01-29T05:46:36;0.90;99.90
38090;DHT22;23904;52.322;10.232;2023-01-29T05:49:02;1.00;99.90
38090;DHT22;23904;52.322;10.232;2023-01-29T05:51:28;1.00;99.90
38090;DHT22;23904;52.322;10.232;2023-01-29T05:53:53;1.00;99.90
38090;DHT22;23904;52.322;10.232;2023-01-29T05:56:19;1.00;99.90
38090;DHT22;23904;52.322;10.232;2023-01-29T05:58:44;1.00;99.90
38090;DHT22;23904;52.322;10.232;2023-01-29T06:01:15;1.00;99.90
38090;DHT22;23904;52.322;10.232;2023-01-29T06:03:43;1.00;99.90
38090;DHT22;23904;52.322;10.232;2023-01-29T06:06:09;0.90;99.90
38090;DHT22;23904;52.322;10.232;2023-01-29T06:08:35;1.00;99.90
38090;DHT22;23904;52.322;10.232;2023-01-29T06:11:01;1.00;99.90
38090;DHT22;23904;52.322;10.232;2023-01-29T06:13:26;1.00;99.90
38090;DHT22;23904;52.322;10.232;2023-01-29T06:15:52;0.90;99.90
38090;DHT22;23904;52.322;10.232;2023-01-29T06:18:18;1.00;99.90
38090;DHT22;23904;52.322;10.232;2023-01-29T06:20:43;1.00;99.90
38090;DHT22;23904;52.322;10.232;2023-01-29T06:23:09;1.00;99.90
38090;DHT22;23904;52.322;10.232;2023-01-29T06:25:34;1.00;99.90
38090;DHT22;23904;52.322;10.232;2023-01-29T06:28:00;1.00;99.90
38090;DHT22;23904;52.322;10.232;2023-01-29T06:30:26;0.90;99.90
38090;DHT22;23904;52.322;10.232;2023-01-29T06:32:55;0.90;99.90
38090;DHT22;23904;52.322;10.232;2023-01-29T06:35:23;1.00;99.90
38090;DHT22;23904;52.322;10.232;2023-01-29T06:37:52;1.00;99.90
38090;DHT22;23904;52.322;10.232;2023-01-29T06:40:18;1.00;99.90
38090;DHT22;23904;52.322;10.232;2023-01-29T06:42:43;1.00;99.90
38090;DHT22;23904;52.322;10.232;2023-01-29T06:45:09;1.00;99.90
38090;DHT22;23904;52.322;10.232;2023-01-29T06:47:35;1.10;99.90
38090;DHT22;23904;52.322;10.232;2023-01-29T06:50:01;1.10;99.90
38090;DHT22;23904;52.322;10.232;2023-01-29T06:52:27;1.20;99.90
38090;DHT22;23904;52.322;10.232;2023-01-29T06:54:54;1.20;99.90
38090;DHT22;23904;52.322;10.232;2023-01-29T06:57:20;1.10;99.90
38090;DHT22;23904;52.322;10.232;2023-01-29T06:59:46;1.10;99.90
38090;DHT22;23904;52.322;10.232;2023-01-29T07:02:11;1.10;99.90
38090;DHT22;23904;52.322;10.232;2023-01-29T07:04:37;1.10;99.90
38090;DHT22;23904;52.322;10.232;2023-01-29T07:07:08;1.10;99.90
38090;DHT22;23904;52.322;10.232;2023-01-29T07:09:41;1.20;99.90
38090;DHT22;23904;52.322;10.232;2023-01-29T07:12:08;1.10;99.90
38090;DHT22;23904;52.322;10.232;2023-01-29T07:14:34;1.20;99.90
38090;DHT22;23904;52.322;10.232;2023-01-29T07:17:00;1.10;99.90
38090;DHT22;23904;52.322;10.232;2023-01-29T07:19:25;1.20;99.90
38090;DHT22;23904;52.322;10.232;2023-01-29T07:21:51;1.20;99.90
38090;DHT22;23904;52.322;10.232;2023-01-29T07:24:16;1.20;99.90
38090;DHT22;23904;52.322;10.232;2023-01-29T07:26:43;1.20;99.90
38090;DHT22;23904;52.322;10.232;2023-01-29T07:29:08;1.20;99.90
38090;DHT22;23904;52.322;10.232;2023-01-29T07:31:34;1.30;99.90
38090;DHT22;23904;52.322;10.232;2023-01-29T07:33:59;1.30;99.90
38090;DHT22;23904;52.322;10.232;2023-01-29T07:36:25;1.30;99.90
38090;DHT22;23904;52.322;10.232;2023-01-29T07:38:51;1.30;99.90
38090;DHT22;23904;52.322;10.232;2023-01-29T07:41:17;1.30;99.90
38090;DHT22;23904;52.322;10.232;2023-01-29T07:43:43;1.30;99.90
38090;DHT22;23904;52.322;10.232;2023-01-29T07:46:08;1.20;99.90
38090;DHT22;23904;52.322;10.232;2023-01-29T07:48:34;1.20;99.90
38090;DHT22;23904;52.322;10.232;2023-01-29T07:51:00;1.30;99.90
38090;DHT22;23904;52.322;10.232;2023-01-29T07:53:26;1.30;99.90
38090;DHT22;23904;52.322;10.232;2023-01-29T07:55:52;1.30;99.90
38090;DHT22;23904;52.322;10.232;2023-01-29T07:58:18;1.30;99.90
38090;DHT22;23904;52.322;10.232;2023-01-29T08:00:43;1.30;99.90
38090;DHT22;23904;52.322;10.232;2023-01-29T08:03:14;1.30;99.90
38090;DHT22;23904;52.322;10.232;2023-01-29T08:05:43;1.30;99.90
38090;DHT22;23904;52.322;10.232;2023-01-29T08:08:09;1.30;99.90
38090;DHT22;23904;52.322;10.232;2023-01-29T08:10:35;1.30;99.90
38090;DHT22;23904;52.322;10.232;2023-01-29T08:13:01;1.30;99.90
38090;DHT22;23904;52.322;10.232;2023-01-29T08:15:28;1.40;99.90
38090;DHT22;23904;52.322;10.232;2023-01-29T08:17:54;1.40;99.90
38090;DHT22;23904;52.322;10.232;2023-01-29T08:20:20;1.30;99.90
38090;DHT22;23904;52.322;10.232;2023-01-29T08:22:47;1.30;99.90
38090;DHT22;23904;52.322;10.232;2023-01-29T08:25:13;1.30;99.90
38090;DHT22;23904;52.322;10.232;2023-01-29T08:27:40;1.30;99.90
38090;DHT22;23904;52.322;10.232;2023-01-29T08:30:06;1.20;99.90
38090;DHT22;23904;52.322;10.232;2023-01-29T08:32:32;1.20;99.90
38090;DHT22;23904;52.322;10.232;2023-01-29T08:34:58;1.20;99.90
38090;DHT22;23904;52.322;10.232;2023-01-29T08:37:24;1.10;99.90
38090;DHT22;23904;52.322;10.232;2023-01-29T08:39:49;1.10;99.90
38090;DHT22;23904;52.322;10.232;2023-01-29T08:42:15;1.10;99.90
38090;DHT22;23904;52.322;10.232;2023-01-29T08:44:40;1.10;99.90
38090;DHT22;23904;52.322;10.232;2023-01-29T08:47:06;1.10;99.90
38090;DHT22;23904;52.322;10.232;2023-01-29T08:49:31;1.10;99.90
38090;DHT22;23904;52.322;10.232;2023-01-29T08:51:57;1.20;99.90
38090;DHT22;23904;52.322;10.232;2023-01-29T08:54:22;1.10;99.90
38090;DHT22;23904;52.322;10.232;2023-01-29T08:56:50;1.10;99.90
38090;DHT22;23904;52.322;10.232;2023-01-29T08:59:16;1.20;99.90
38090;DHT22;23904;52.322;10.232;2023-01-29T09:01:41;1.20;99.90
38090;DHT22;23904;52.322;10.232;2023-01-29T09:04:07;1.30;99.90
38090;DHT22;23904;52.322;10.232;2023-01-29T09:06:33;1.30;99.90
38090;DHT22;23904;52.322;10.232;2023-01-29T09:08:58;1.40;99.90
38090;DHT22;23904;52.322;10.232;2023-01-29T09:11:24;1.40;99.90
38090;DHT22;23904;52.322;10.232;2023-01-29T09:13:49;1.40;99.90
38090;DHT22;23904;52.322;10.232;2023-01-29T09:16:15;1.40;99.90
38090;DHT22;23904;52.322;10.232;2023-01-29T09:18:41;1.50;99.90
38090;DHT22;23904;52.322;10.232;2023-01-29T09:21:06;1.50;99.90
38090;DHT22;23904;52.322;10.232;2023-01-29T09:23:32;1.50;99.90
38090;DHT22;23904;52.322;10.232;2023-01-29T09:25:58;1.60;99.90
38090;DHT22;23904;52.322;10.232;2023-01-29T09:28:24;1.70;99.90
38090;DHT22;23904;52.322;10.232;2023-01-29T09:30:50;1.80;99.90
38090;DHT22;23904;52.322;10.232;2023-01-29T09:33:16;1.80;99.90
38090;DHT22;23904;52.322;10.232;2023-01-29T09:35:43;1.80;99.90
38090;DHT22;23904;52.322;10.232;2023-01-29T09:38:10;1.80;99.90
38090;DHT22;23904;52.322;10.232;2023-01-29T09:44:01;1.80;99.90
38090;DHT22;23904;52.322;10.232;2023-01-29T09:46:40;1.70;99.90
38090;DHT22;23904;52.322;10.232;2023-01-29T09:49:21;1.70;99.90
38090;DHT22;23904;52.322;10.232;2023-01-29T09:51:59;1.70;99.90
38090;DHT22;23904;52.322;10.232;2023-01-29T09:54:46;1.70;99.90
38090;DHT22;23904;52.322;10.232;2023-01-29T09:57:19;1.70;99.90
38090;DHT22;23904;52.322;10.232;2023-01-29T09:59:48;1.70;99.90
38090;DHT22;23904;52.322;10.232;2023-01-29T10:05:33;1.70;99.90
38090;DHT22;23904;52.322;10.232;2023-01-29T10:14:10;1.80;99.90
38090;DHT22;23904;52.322;10.232;2023-01-29T10:16:56;1.80;99.90
38090;DHT22;23904;52.322;10.232;2023-01-29T10:25:18;2.00;99.90
38090;DHT22;23904;52.322;10.232;2023-01-29T10:27:51;2.00;99.90
38090;DHT22;23904;52.322;10.232;2023-01-29T10:33:01;2.00;99.90
38090;DHT22;23904;52.322;10.232;2023-01-29T10:35:34;2.10;99.90
38090;DHT22;23904;52.322;10.232;2023-01-29T10:41:20;2.10;99.90
38090;DHT22;23904;52.322;10.232;2023-01-29T10:44:16;2.00;99.90
38090;DHT22;23904;52.322;10.232;2023-01-29T10:50:23;2.10;99.90
38090;DHT22;23904;52.322;10.232;2023-01-29T10:53:03;2.10;99.90
38090;DHT22;23904;52.322;10.232;2023-01-29T10:56:08;2.10;99.90
38090;DHT22;23904;52.322;10.232;2023-01-29T10:58:58;2.20;99.90
38090;DHT22;23904;52.322;10.232;2023-01-29T11:01:27;2.10;99.90
38090;DHT22;23904;52.322;10.232;2023-01-29T11:04:02;2.10;99.90
38090;DHT22;23904;52.322;10.232;2023-01-29T11:06:33;2.20;99.90
38090;DHT22;23904;52.322;10.232;2023-01-29T11:11:58;2.10;99.90
38090;DHT22;23904;52.322;10.232;2023-01-29T11:14:45;2.10;99.90
38090;DHT22;23904;52.322;10.232;2023-01-29T11:17:17;2.20;99.90
38090;DHT22;23904;52.322;10.232;2023-01-29T11:19:46;2.10;99.90
38090;DHT22;23904;52.322;10.232;2023-01-29T11:22:24;2.10;99.90
38090;DHT22;23904;52.322;10.232;2023-01-29T11:25:18;2.10;99.90
38090;DHT22;23904;52.322;10.232;2023-01-29T11:27:59;2.10;99.90
38090;DHT22;23904;52.322;10.232;2023-01-29T11:30:31;2.10;99.90
38090;DHT22;23904;52.322;10.232;2023-01-29T11:35:29;2.20;99.90
38090;DHT22;23904;52.322;10.232;2023-01-29T11:38:27;2.20;99.90
38090;DHT22;23904;52.322;10.232;2023-01-29T11:41:05;2.20;99.90
38090;DHT22;23904;52.322;10.232;2023-01-29T11:43:32;2.20;99.90
38090;DHT22;23904;52.322;10.232;2023-01-29T11:46:04;2.20;99.90
38090;DHT22;23904;52.322;10.232;2023-01-29T11:48:46;2.20;99.90
38090;DHT22;23904;52.322;10.232;2023-01-29T11:51:26;2.30;99.90
38090;DHT22;23904;52.322;10.232;2023-01-29T11:53:56;2.40;99.90
38090;DHT22;23904;52.322;10.232;2023-01-29T11:56:33;2.50;99.90
38090;DHT22;23904;52.322;10.232;2023-01-29T11:59:04;2.50;99.90
38090;DHT22;23904;52.322;10.232;2023-01-29T12:01:35;2.60;99.90
38090;DHT22;23904;52.322;10.232;2023-01-29T12:04:14;2.50;99.90
38090;DHT22;23904;52.322;10.232;2023-01-29T12:06:44;2.50;99.90
38090;DHT22;23904;52.322;10.232;2023-01-29T12:09:18;2.50;99.90
38090;DHT22;23904;52.322;10.232;2023-01-29T12:11:46;2.50;99.90
38090;DHT22;23904;52.322;10.232;2023-01-29T12:14:31;2.50;99.90
38090;DHT22;23904;52.322;10.232;2023-01-29T12:17:07;2.50;99.90
38090;DHT22;23904;52.322;10.232;2023-01-29T12:19:57;2.70;99.90
38090;DHT22;23904;52.322;10.232;2023-01-29T12:23:11;2.70;99.90
38090;DHT22;23904;52.322;10.232;2023-01-29T12:26:04;2.80;99.90
38090;DHT22;23904;52.322;10.232;2023-01-29T12:34:34;2.60;99.90
38090;DHT22;23904;52.322;10.232;2023-01-29T12:39:56;2.70;99.90
38090;DHT22;23904;52.322;10.232;2023-01-29T12:42:23;2.60;99.90
38090;DHT22;23904;52.322;10.232;2023-01-29T12:44:53;2.60;99.90
38090;DHT22;23904;52.322;10.232;2023-01-29T12:50:01;2.50;99.90
38090;DHT22;23904;52.322;10.232;2023-01-29T12:52:38;2.50;99.90
38090;DHT22;23904;52.322;10.232;2023-01-29T12:55:12;2.60;99.90
38090;DHT22;23904;52.322;10.232;2023-01-29T12:57:55;2.60;99.90
38090;DHT22;23904;52.322;10.232;2023-01-29T13:01:02;2.50;99.90
38090;DHT22;23904;52.322;10.232;2023-01-29T13:06:17;2.50;99.90
38090;DHT22;23904;52.322;10.232;2023-01-29T13:09:03;2.50;99.90
38090;DHT22;23904;52.322;10.232;2023-01-29T13:11:40;2.60;99.90
38090;DHT22;23904;52.322;10.232;2023-01-29T13:17:14;2.50;99.90
38090;DHT22;23904;52.322;10.232;2023-01-29T13:19:48;2.50;99.90
38090;DHT22;23904;52.322;10.232;2023-01-29T13:22:23;2.50;99.90
38090;DHT22;23904;52.322;10.232;2023-01-29T13:24:53;2.60;99.90
38090;DHT22;23904;52.322;10.232;2023-01-29T13:27:23;2.60;99.90
38090;DHT22;23904;52.322;10.232;2023-01-29T13:29:50;2.60;99.90
38090;DHT22;23904;52.322;10.232;2023-01-29T13:32:25;2.70;99.90
38090;DHT22;23904;52.322;10.232;2023-01-29T13:35:01;2.60;99.90
38090;DHT22;23904;52.322;10.232;2023-01-29T13:37:34;2.60;99.90
38090;DHT22;23904;52.322;10.232;2023-01-29T13:40:04;2.60;99.90
38090;DHT22;23904;52.322;10.232;2023-01-29T13:42:45;2.60;99.90
38090;DHT22;23904;52.322;10.232;2023-01-29T13:45:35;2.50;99.90
38090;DHT22;23904;52.322;10.232;2023-01-29T13:48:24;2.60;99.90
38090;DHT22;23904;52.322;10.232;2023-01-29T13:50:53;2.60;99.90
38090;DHT22;23904;52.322;10.232;2023-01-29T13:53:28;2.60;99.90
38090;DHT22;23904;52.322;10.232;2023-01-29T13:58:59;2.70;99.90
38090;DHT22;23904;52.322;10.232;2023-01-29T14:04:31;2.70;99.90
38090;DHT22;23904;52.322;10.232;2023-01-29T14:06:58;2.80;99.90
38090;DHT22;23904;52.322;10.232;2023-01-29T14:17:14;2.90;99.90
38090;DHT22;23904;52.322;10.232;2023-01-29T14:19:51;2.90;99.90
38090;DHT22;23904;52.322;10.232;2023-01-29T14:22:21;2.90;99.90
38090;DHT22;23904;52.322;10.232;2023-01-29T14:24:53;2.90;99.90
38090;DHT22;23904;52.322;10.232;2023-01-29T14:27:23;2.80;99.90
38090;DHT22;23904;52.322;10.232;2023-01-29T14:29:58;2.80;99.90
38090;DHT22;23904;52.322;10.232;2023-01-29T14:32:25;2.80;99.90
38090;DHT22;23904;52.322;10.232;2023-01-29T14:35:03;2.70;99.90
38090;DHT22;23904;52.322;10.232;2023-01-29T14:37:38;2.70;99.90
38090;DHT22;23904;52.322;10.232;2023-01-29T14:42:53;2.70;99.90
38090;DHT22;23904;52.322;10.232;2023-01-29T14:45:23;2.60;99.90
38090;DHT22;23904;52.322;10.232;2023-01-29T14:53:19;2.60;99.90
38090;DHT22;23904;52.322;10.232;2023-01-29T14:56:10;2.70;99.90
38090;DHT22;23904;52.322;10.232;2023-01-29T14:58:53;2.60;99.90
38090;DHT22;23904;52.322;10.232;2023-01-29T15:01:30;2.70;99.90
38090;DHT22;23904;52.322;10.232;2023-01-29T15:04:12;2.60;99.90
38090;DHT22;23904;52.322;10.232;2023-01-29T15:07:02;2.60;99.90
38090;DHT22;23904;52.322;10.232;2023-01-29T15:09:41;2.50;99.90
38090;DHT22;23904;52.322;10.232;2023-01-29T15:15:12;2.50;99.90
38090;DHT22;23904;52.322;10.232;2023-01-29T15:18:11;2.50;99.90
38090;DHT22;23904;52.322;10.232;2023-01-29T15:20:41;2.40;99.90
38090;DHT22;23904;52.322;10.232;2023-01-29T15:23:30;2.30;99.90
38090;DHT22;23904;52.322;10.232;2023-01-29T15:26:09;2.30;99.90
38090;DHT22;23904;52.322;10.232;2023-01-29T15:28:57;2.30;99.90
38090;DHT22;23904;52.322;10.232;2023-01-29T15:31:24;2.30;99.90
38090;DHT22;23904;52.322;10.232;2023-01-29T15:33:52;2.30;99.90
38090;DHT22;23904;52.322;10.232;2023-01-29T15:36:24;2.40;99.90
38090;DHT22;23904;52.322;10.232;2023-01-29T15:39:22;2.40;99.90
38090;DHT22;23904;52.322;10.232;2023-01-29T15:41:50;2.40;99.90
38090;DHT22;23904;52.322;10.232;2023-01-29T15:44:29;2.30;99.90
38090;DHT22;23904;52.322;10.232;2023-01-29T15:46:58;2.30;99.90
38090;DHT22;23904;52.322;10.232;2023-01-29T15:49:30;2.30;99.90
38090;DHT22;23904;52.322;10.232;2023-01-29T15:51:58;2.30;99.90
38090;DHT22;23904;52.322;10.232;2023-01-29T15:54:30;2.30;99.90
38090;DHT22;23904;52.322;10.232;2023-01-29T15:56:56;2.20;99.90
38090;DHT22;23904;52.322;10.232;2023-01-29T15:59:30;2.20;99.90
38090;DHT22;23904;52.322;10.232;2023-01-29T16:04:53;2.10;99.90
38090;DHT22;23904;52.322;10.232;2023-01-29T16:07:20;2.20;99.90
38090;DHT22;23904;52.322;10.232;2023-01-29T16:09:47;2.10;99.90
38090;DHT22;23904;52.322;10.232;2023-01-29T16:12:13;2.10;99.90
38090;DHT22;23904;52.322;10.232;2023-01-29T16:14:40;2.10;99.90
38090;DHT22;23904;52.322;10.232;2023-01-29T16:19:55;2.00;99.90
38090;DHT22;23904;52.322;10.232;2023-01-29T16:22:22;2.00;99.90
38090;DHT22;23904;52.322;10.232;2023-01-29T16:24:47;1.90;99.90
38090;DHT22;23904;52.322;10.232;2023-01-29T16:27:17;1.90;99.90
38090;DHT22;23904;52.322;10.232;2023-01-29T16:29:43;1.90;99.90
38090;DHT22;23904;52.322;10.232;2023-01-29T16:32:09;1.90;99.90
38090;DHT22;23904;52.322;10.232;2023-01-29T16:34:39;1.90;99.90
38090;DHT22;23904;52.322;10.232;2023-01-29T16:37:16;1.90;99.90
38090;DHT22;23904;52.322;10.232;2023-01-29T16:39:56;1.90;99.90
38090;DHT22;23904;52.322;10.232;2023-01-29T16:42:29;1.90;99.90
38090;DHT22;23904;52.322;10.232;2023-01-29T16:53:00;1.90;99.90
38090;DHT22;23904;52.322;10.232;2023-01-29T16:55:33;1.90;99.90
38090;DHT22;23904;52.322;10.232;2023-01-29T16:58:07;1.90;99.90
38090;DHT22;23904;52.322;10.232;2023-01-29T17:00:43;1.90;99.90
38090;DHT22;23904;52.322;10.232;2023-01-29T17:03:11;1.90;99.90
38090;DHT22;23904;52.322;10.232;2023-01-29T17:05:37;2.00;99.90
38090;DHT22;23904;52.322;10.232;2023-01-29T17:08:03;2.10;99.90
38090;DHT22;23904;52.322;10.232;2023-01-29T17:10:31;2.10;99.90
38090;DHT22;23904;52.322;10.232;2023-01-29T17:13:13;2.10;99.90
38090;DHT22;23904;52.322;10.232;2023-01-29T17:15:44;2.00;99.90
38090;DHT22;23904;52.322;10.232;2023-01-29T17:18:19;2.00;99.90
38090;DHT22;23904;52.322;10.232;2023-01-29T17:20:49;2.10;99.90
38090;DHT22;23904;52.322;10.232;2023-01-29T17:23:17;2.10;99.90
38090;DHT22;23904;52.322;10.232;2023-01-29T17:25:44;2.10;99.90
38090;DHT22;23904;52.322;10.232;2023-01-29T17:28:15;2.10;99.90
38090;DHT22;23904;52.322;10.232;2023-01-29T17:30:42;2.10;99.90
38090;DHT22;23904;52.322;10.232;2023-01-29T17:33:11;2.10;99.90
38090;DHT22;23904;52.322;10.232;2023-01-29T17:35:42;2.20;99.90
38090;DHT22;23904;52.322;10.232;2023-01-29T17:38:10;2.10;99.90
38090;DHT22;23904;52.322;10.232;2023-01-29T17:43:22;2.20;99.90
38090;DHT22;23904;52.322;10.232;2023-01-29T17:45:47;2.20;99.90
38090;DHT22;23904;52.322;10.232;2023-01-29T17:48:18;2.10;99.90
38090;DHT22;23904;52.322;10.232;2023-01-29T17:50:51;2.20;99.90
38090;DHT22;23904;52.322;10.232;2023-01-29T17:53:20;2.10;99.90
38090;DHT22;23904;52.322;10.232;2023-01-29T17:55:46;2.20;99.90
38090;DHT22;23904;52.322;10.232;2023-01-29T17:58:19;2.20;99.90
38090;DHT22;23904;52.322;10.232;2023-01-29T18:00:46;2.10;99.90
38090;DHT22;23904;52.322;10.232;2023-01-29T18:03:13;2.20;99.90
38090;DHT22;23904;52.322;10.232;2023-01-29T18:05:39;2.20;99.90